Terminal Aerodrome Forecast
Issued by NWS

Home | Current Version | Previous Version | Text Only | Print | Product List | Glossary On
Versions: 1 2 3 4 5 6 7 8 9 10 11 12 13 14
000
FTUS46 KMTR 230500
TAFOAK
TAF
KOAK 230520Z 2306/2412 31005KT P6SM FEW150 BKN200
     FM230900 27003KT P6SM BKN015
     FM231800 26006KT P6SM SCT015 OVC100
     FM240300 31006KT P6SM OVC050=

USA.gov is the U.S. government's official web portal to all federal, state and local government web resources and services.